sensor_id;sensor_type;location;lat;lon;timestamp;pressure;altitude;pressure_sealevel;temperature;humidity
72585;BME280;60618;40.084;32.908;2023-01-16T00:01:33;89581.38;;;0.65;59.88
72585;BME280;60618;40.084;32.908;2023-01-16T00:04:00;89581.47;;;0.78;59.64
72585;BME280;60618;40.084;32.908;2023-01-16T00:06:27;89579.00;;;1.03;58.60
72585;BME280;60618;40.084;32.908;2023-01-16T00:08:53;89578.84;;;1.10;57.94
72585;BME280;60618;40.084;32.908;2023-01-16T00:11:20;89577.38;;;1.09;58.50
72585;BME280;60618;40.084;32.908;2023-01-16T00:13:47;89570.72;;;0.89;58.73
72585;BME280;60618;40.084;32.908;2023-01-16T00:16:14;89573.69;;;0.74;59.55
72585;BME280;60618;40.084;32.908;2023-01-16T00:18:41;89569.41;;;0.64;60.38
72585;BME280;60618;40.084;32.908;2023-01-16T00:21:08;89572.59;;;0.55;60.71
72585;BME280;60618;40.084;32.908;2023-01-16T00:23:35;89570.31;;;0.74;59.62
72585;BME280;60618;40.084;32.908;2023-01-16T00:26:09;89563.53;;;0.76;59.38
72585;BME280;60618;40.084;32.908;2023-01-16T00:28:35;89556.72;;;0.95;58.79
72585;BME280;60618;40.084;32.908;2023-01-16T00:31:04;89562.44;;;1.06;58.33
72585;BME280;60618;40.084;32.908;2023-01-16T00:33:32;89567.63;;;1.10;58.50
72585;BME280;60618;40.084;32.908;2023-01-16T00:36:00;89565.47;;;1.05;58.11
72585;BME280;60618;40.084;32.908;2023-01-16T00:38:27;89557.31;;;1.03;58.26
72585;BME280;60618;40.084;32.908;2023-01-16T00:40:54;89559.91;;;1.03;58.79
72585;BME280;60618;40.084;32.908;2023-01-16T00:43:21;89552.94;;;0.96;58.31
72585;BME280;60618;40.084;32.908;2023-01-16T00:45:48;89555.81;;;1.02;58.46
72585;BME280;60618;40.084;32.908;2023-01-16T00:48:15;89546.06;;;1.02;57.80
72585;BME280;60618;40.084;32.908;2023-01-16T00:50:42;89549.66;;;0.60;60.01
72585;BME280;60618;40.084;32.908;2023-01-16T00:53:09;89549.72;;;0.40;60.39
72585;BME280;60618;40.084;32.908;2023-01-16T00:55:36;89543.81;;;0.36;60.80
72585;BME280;60618;40.084;32.908;2023-01-16T00:58:03;89549.22;;;0.45;60.16
72585;BME280;60618;40.084;32.908;2023-01-16T01:00:30;89547.00;;;0.63;59.66
72585;BME280;60618;40.084;32.908;2023-01-16T01:02:58;89543.38;;;0.73;59.18
72585;BME280;60618;40.084;32.908;2023-01-16T01:05:25;89545.19;;;0.76;58.79
72585;BME280;60618;40.084;32.908;2023-01-16T01:07:52;89541.34;;;0.81;58.74
72585;BME280;60618;40.084;32.908;2023-01-16T01:10:19;89535.59;;;0.86;58.52
72585;BME280;60618;40.084;32.908;2023-01-16T01:12:46;89537.72;;;0.91;58.14
72585;BME280;60618;40.084;32.908;2023-01-16T01:15:12;89526.00;;;0.96;58.01
72585;BME280;60618;40.084;32.908;2023-01-16T01:17:39;89530.59;;;0.92;58.07
72585;BME280;60618;40.084;32.908;2023-01-16T01:20:07;89528.88;;;0.85;59.00
72585;BME280;60618;40.084;32.908;2023-01-16T01:22:34;89525.66;;;0.45;61.19
72585;BME280;60618;40.084;32.908;2023-01-16T01:25:01;89525.31;;;0.26;62.02
72585;BME280;60618;40.084;32.908;2023-01-16T01:27:28;89524.66;;;0.22;61.51
72585;BME280;60618;40.084;32.908;2023-01-16T01:29:55;89520.88;;;0.23;60.95
72585;BME280;60618;40.084;32.908;2023-01-16T01:32:22;89526.00;;;0.47;60.17
72585;BME280;60618;40.084;32.908;2023-01-16T01:34:49;89523.13;;;0.57;59.54
72585;BME280;60618;40.084;32.908;2023-01-16T01:37:16;89523.00;;;0.65;59.15
72585;BME280;60618;40.084;32.908;2023-01-16T01:39:43;89526.66;;;0.67;59.36
72585;BME280;60618;40.084;32.908;2023-01-16T01:42:11;89530.59;;;0.75;59.23
72585;BME280;60618;40.084;32.908;2023-01-16T01:45:04;89521.91;;;0.78;59.15
72585;BME280;60618;40.084;32.908;2023-01-16T01:47:34;89523.88;;;0.74;59.01
72585;BME280;60618;40.084;32.908;2023-01-16T01:50:13;89522.00;;;0.75;58.63
72585;BME280;60618;40.084;32.908;2023-01-16T01:52:42;89529.03;;;0.62;60.09
72585;BME280;60618;40.084;32.908;2023-01-16T01:55:11;89533.06;;;0.14;62.11
72585;BME280;60618;40.084;32.908;2023-01-16T01:57:45;89529.16;;;-0.14;62.95
72585;BME280;60618;40.084;32.908;2023-01-16T02:00:17;89540.06;;;-0.19;63.39
72585;BME280;60618;40.084;32.908;2023-01-16T02:03:02;89537.78;;;0.03;62.08
72585;BME280;60618;40.084;32.908;2023-01-16T02:05:38;89534.88;;;0.17;61.42
72585;BME280;60618;40.084;32.908;2023-01-16T02:08:08;89536.59;;;0.23;60.72
72585;BME280;60618;40.084;32.908;2023-01-16T02:10:42;89532.22;;;0.37;60.26
72585;BME280;60618;40.084;32.908;2023-01-16T02:13:10;89532.41;;;0.46;59.85
72585;BME280;60618;40.084;32.908;2023-01-16T02:15:38;89536.81;;;0.49;59.74
72585;BME280;60618;40.084;32.908;2023-01-16T02:18:09;89535.97;;;0.52;59.85
72585;BME280;60618;40.084;32.908;2023-01-16T02:20:50;89534.44;;;0.54;59.83
72585;BME280;60618;40.084;32.908;2023-01-16T02:26:34;89544.56;;;0.36;61.47
72585;BME280;60618;40.084;32.908;2023-01-16T02:29:42;89536.00;;;0.16;62.39
72585;BME280;60618;40.084;32.908;2023-01-16T02:40:38;89534.13;;;-0.40;65.29
72585;BME280;60618;40.084;32.908;2023-01-16T02:43:25;89537.31;;;-0.12;63.30
72585;BME280;60618;40.084;32.908;2023-01-16T02:52:15;89539.22;;;0.23;61.66
72585;BME280;60618;40.084;32.908;2023-01-16T02:54:16;89538.41;;;0.26;61.12
72585;BME280;60618;40.084;32.908;2023-01-16T02:56:51;89545.09;;;0.11;62.26
72585;BME280;60618;40.084;32.908;2023-01-16T02:59:22;89540.00;;;0.04;62.39
72585;BME280;60618;40.084;32.908;2023-01-16T03:01:51;89534.31;;;0.25;61.55
72585;BME280;60618;40.084;32.908;2023-01-16T03:15:46;89527.25;;;-0.73;65.36
72585;BME280;60618;40.084;32.908;2023-01-16T03:18:28;89536.75;;;-0.40;63.70
72585;BME280;60618;40.084;32.908;2023-01-16T03:21:08;89531.38;;;-0.33;63.61
72585;BME280;60618;40.084;32.908;2023-01-16T03:24:10;89540.81;;;-0.39;63.78
72585;BME280;60618;40.084;32.908;2023-01-16T03:26:45;89527.00;;;-0.19;62.65
72585;BME280;60618;40.084;32.908;2023-01-16T03:32:41;89532.00;;;0.11;61.71
72585;BME280;60618;40.084;32.908;2023-01-16T03:35:16;89539.53;;;0.09;61.38
72585;BME280;60618;40.084;32.908;2023-01-16T03:38:06;89538.34;;;-0.26;63.26
72585;BME280;60618;40.084;32.908;2023-01-16T03:40:42;89539.72;;;-0.81;65.35
72585;BME280;60618;40.084;32.908;2023-01-16T03:43:26;89541.03;;;-0.69;64.29
72585;BME280;60618;40.084;32.908;2023-01-16T03:46:10;89546.97;;;-0.89;66.56
72585;BME280;60618;40.084;32.908;2023-01-16T03:48:52;89543.41;;;-1.49;67.88
72585;BME280;60618;40.084;32.908;2023-01-16T03:51:29;89545.16;;;-1.65;68.23
72585;BME280;60618;40.084;32.908;2023-01-16T03:56:49;89544.88;;;-0.97;64.67
72585;BME280;60618;40.084;32.908;2023-01-16T03:59:18;89539.44;;;-0.87;64.17
72585;BME280;60618;40.084;32.908;2023-01-16T04:07:09;89538.13;;;-1.45;68.54
72585;BME280;60618;40.084;32.908;2023-01-16T04:09:57;89540.44;;;-1.24;67.01
72585;BME280;60618;40.084;32.908;2023-01-16T04:12:29;89536.94;;;-0.94;65.88
72585;BME280;60618;40.084;32.908;2023-01-16T04:14:59;89544.28;;;-0.85;65.72
72585;BME280;60618;40.084;32.908;2023-01-16T04:17:28;89541.13;;;-0.76;64.96
72585;BME280;60618;40.084;32.908;2023-01-16T04:19:56;89534.66;;;-0.68;64.65
72585;BME280;60618;40.084;32.908;2023-01-16T04:22:26;89542.09;;;-0.67;64.64
72585;BME280;60618;40.084;32.908;2023-01-16T04:24:56;89543.97;;;-0.67;64.54
72585;BME280;60618;40.084;32.908;2023-01-16T04:27:24;89547.59;;;-0.61;64.30
72585;BME280;60618;40.084;32.908;2023-01-16T04:29:51;89535.06;;;-0.50;63.85
72585;BME280;60618;40.084;32.908;2023-01-16T04:32:18;89547.72;;;-0.48;63.84
72585;BME280;60618;40.084;32.908;2023-01-16T04:34:45;89542.28;;;-0.38;63.78
72585;BME280;60618;40.084;32.908;2023-01-16T04:37:13;89540.56;;;-0.24;63.04
72585;BME280;60618;40.084;32.908;2023-01-16T04:39:40;89541.56;;;-0.18;62.80
72585;BME280;60618;40.084;32.908;2023-01-16T04:42:08;89552.56;;;-0.47;64.51
72585;BME280;60618;40.084;32.908;2023-01-16T04:44:35;89545.44;;;-0.46;63.84
72585;BME280;60618;40.084;32.908;2023-01-16T04:47:03;89547.41;;;-0.31;63.14
72585;BME280;60618;40.084;32.908;2023-01-16T04:49:30;89545.13;;;-0.29;62.70
72585;BME280;60618;40.084;32.908;2023-01-16T04:51:56;89543.97;;;-0.47;63.83
72585;BME280;60618;40.084;32.908;2023-01-16T04:54:23;89541.50;;;-0.35;63.12
72585;BME280;60618;40.084;32.908;2023-01-16T04:56:50;89549.50;;;-0.42;63.98
72585;BME280;60618;40.084;32.908;2023-01-16T04:59:17;89542.78;;;-0.63;64.76
72585;BME280;60618;40.084;32.908;2023-01-16T05:01:45;89542.97;;;-0.53;64.28
72585;BME280;60618;40.084;32.908;2023-01-16T05:04:13;89549.66;;;-0.72;65.13
72585;BME280;60618;40.084;32.908;2023-01-16T05:06:41;89555.22;;;-0.70;65.46
72585;BME280;60618;40.084;32.908;2023-01-16T05:09:08;89556.91;;;-0.60;64.45
72585;BME280;60618;40.084;32.908;2023-01-16T05:11:35;89553.78;;;-0.51;64.20
72585;BME280;60618;40.084;32.908;2023-01-16T05:14:02;89549.47;;;-0.62;64.95
72585;BME280;60618;40.084;32.908;2023-01-16T05:16:29;89550.34;;;-0.68;65.00
72585;BME280;60618;40.084;32.908;2023-01-16T05:18:56;89552.56;;;-0.47;65.11
72585;BME280;60618;40.084;32.908;2023-01-16T05:21:23;89549.81;;;-0.40;64.72
72585;BME280;60618;40.084;32.908;2023-01-16T05:23:50;89558.06;;;-0.21;64.84
72585;BME280;60618;40.084;32.908;2023-01-16T05:26:17;89549.81;;;0.00;64.89
72585;BME280;60618;40.084;32.908;2023-01-16T05:28:44;89557.38;;;0.14;64.17
72585;BME280;60618;40.084;32.908;2023-01-16T05:31:11;89555.19;;;-0.07;63.95
72585;BME280;60618;40.084;32.908;2023-01-16T05:33:38;89557.84;;;-0.70;65.81
72585;BME280;60618;40.084;32.908;2023-01-16T05:36:05;89557.13;;;-0.71;66.59
72585;BME280;60618;40.084;32.908;2023-01-16T05:38:32;89554.56;;;-0.54;66.65
72585;BME280;60618;40.084;32.908;2023-01-16T05:40:59;89551.22;;;-0.55;67.03
72585;BME280;60618;40.084;32.908;2023-01-16T05:43:26;89555.31;;;-0.34;66.65
72585;BME280;60618;40.084;32.908;2023-01-16T05:45:53;89562.50;;;0.02;66.18
72585;BME280;60618;40.084;32.908;2023-01-16T05:48:20;89567.81;;;0.34;65.52
72585;BME280;60618;40.084;32.908;2023-01-16T05:50:47;89560.41;;;0.65;64.61
72585;BME280;60618;40.084;32.908;2023-01-16T05:53:14;89559.44;;;0.92;64.65
72585;BME280;60618;40.084;32.908;2023-01-16T05:55:46;89561.88;;;1.15;63.85
72585;BME280;60618;40.084;32.908;2023-01-16T05:58:16;89563.44;;;1.29;63.52
72585;BME280;60618;40.084;32.908;2023-01-16T06:00:43;89571.00;;;1.56;63.13
72585;BME280;60618;40.084;32.908;2023-01-16T06:03:10;89562.16;;;1.79;62.46
72585;BME280;60618;40.084;32.908;2023-01-16T06:05:37;89568.00;;;1.99;61.67
72585;BME280;60618;40.084;32.908;2023-01-16T06:08:04;89559.09;;;1.51;61.25
72585;BME280;60618;40.084;32.908;2023-01-16T06:10:31;89567.94;;;1.28;62.13
72585;BME280;60618;40.084;32.908;2023-01-16T06:13:00;89563.88;;;1.40;62.31
72585;BME280;60618;40.084;32.908;2023-01-16T06:15:28;89564.91;;;1.59;62.17
72585;BME280;60618;40.084;32.908;2023-01-16T06:17:55;89568.94;;;1.63;61.79
72585;BME280;60618;40.084;32.908;2023-01-16T06:20:23;89559.94;;;1.77;61.64
72585;BME280;60618;40.084;32.908;2023-01-16T06:22:50;89566.63;;;1.94;61.50
72585;BME280;60618;40.084;32.908;2023-01-16T06:25:17;89551.22;;;2.09;61.10
72585;BME280;60618;40.084;32.908;2023-01-16T06:27:50;89564.97;;;2.01;61.07
72585;BME280;60618;40.084;32.908;2023-01-16T06:30:18;89563.34;;;1.90;61.64
72585;BME280;60618;40.084;32.908;2023-01-16T06:32:48;89571.06;;;1.52;60.94
72585;BME280;60618;40.084;32.908;2023-01-16T06:35:16;89569.09;;;1.11;62.75
72585;BME280;60618;40.084;32.908;2023-01-16T06:37:43;89571.31;;;1.12;63.29
72585;BME280;60618;40.084;32.908;2023-01-16T06:40:10;89571.72;;;1.27;63.23
72585;BME280;60618;40.084;32.908;2023-01-16T06:42:38;89567.53;;;1.13;61.83
72585;BME280;60618;40.084;32.908;2023-01-16T06:45:06;89562.88;;;1.05;63.64
72585;BME280;60618;40.084;32.908;2023-01-16T06:47:33;89563.69;;;1.18;62.45
72585;BME280;60618;40.084;32.908;2023-01-16T06:50:00;89570.28;;;1.39;62.55
72585;BME280;60618;40.084;32.908;2023-01-16T06:52:27;89568.88;;;1.51;61.88
72585;BME280;60618;40.084;32.908;2023-01-16T06:54:53;89570.63;;;1.70;61.34
72585;BME280;60618;40.084;32.908;2023-01-16T06:57:20;89553.53;;;1.78;60.97
72585;BME280;60618;40.084;32.908;2023-01-16T06:59:47;89557.34;;;1.61;60.99
72585;BME280;60618;40.084;32.908;2023-01-16T07:02:14;89564.75;;;1.66;61.58
72585;BME280;60618;40.084;32.908;2023-01-16T07:04:41;89570.97;;;1.72;61.37
72585;BME280;60618;40.084;32.908;2023-01-16T07:07:08;89568.59;;;1.61;60.98
72585;BME280;60618;40.084;32.908;2023-01-16T07:09:35;89571.63;;;1.60;61.65
72585;BME280;60618;40.084;32.908;2023-01-16T07:12:02;89565.50;;;1.79;61.30
72585;BME280;60618;40.084;32.908;2023-01-16T07:14:29;89567.06;;;2.06;60.85
72585;BME280;60618;40.084;32.908;2023-01-16T07:16:56;89567.84;;;2.32;59.68
72585;BME280;60618;40.084;32.908;2023-01-16T07:19:23;89565.25;;;2.44;59.66
72585;BME280;60618;40.084;32.908;2023-01-16T07:21:50;89560.75;;;2.70;59.00
72585;BME280;60618;40.084;32.908;2023-01-16T07:24:21;89564.31;;;2.89;58.69
72585;BME280;60618;40.084;32.908;2023-01-16T07:26:55;89565.66;;;3.19;58.14
72585;BME280;60618;40.084;32.908;2023-01-16T07:29:24;89561.81;;;3.46;57.56
72585;BME280;60618;40.084;32.908;2023-01-16T07:31:52;89561.59;;;3.75;57.10
72585;BME280;60618;40.084;32.908;2023-01-16T07:34:20;89565.66;;;3.88;56.89
72585;BME280;60618;40.084;32.908;2023-01-16T07:36:47;89563.59;;;4.05;55.94
72585;BME280;60618;40.084;32.908;2023-01-16T07:39:14;89565.19;;;4.24;55.77
72585;BME280;60618;40.084;32.908;2023-01-16T07:41:40;89559.16;;;4.46;54.22
72585;BME280;60618;40.084;32.908;2023-01-16T07:44:23;89564.56;;;4.73;55.13
72585;BME280;60618;40.084;32.908;2023-01-16T07:46:49;89567.16;;;4.95;52.96
72585;BME280;60618;40.084;32.908;2023-01-16T07:49:16;89568.47;;;5.00;52.31
72585;BME280;60618;40.084;32.908;2023-01-16T07:51:43;89575.69;;;5.08;51.42
72585;BME280;60618;40.084;32.908;2023-01-16T07:54:10;89570.09;;;4.97;52.66
72585;BME280;60618;40.084;32.908;2023-01-16T07:56:37;89570.16;;;5.16;51.37
72585;BME280;60618;40.084;32.908;2023-01-16T07:59:04;89582.06;;;5.29;50.28
72585;BME280;60618;40.084;32.908;2023-01-16T08:01:32;89573.81;;;4.78;50.45
72585;BME280;60618;40.084;32.908;2023-01-16T08:03:59;89569.06;;;4.64;51.13
72585;BME280;60618;40.084;32.908;2023-01-16T08:06:26;89563.63;;;4.98;51.20
72585;BME280;60618;40.084;32.908;2023-01-16T08:08:53;89564.63;;;4.92;51.51
72585;BME280;60618;40.084;32.908;2023-01-16T08:11:20;89561.22;;;4.82;51.69
72585;BME280;60618;40.084;32.908;2023-01-16T08:13:47;89557.88;;;4.91;52.23
72585;BME280;60618;40.084;32.908;2023-01-16T08:16:14;89557.31;;;4.96;51.11
72585;BME280;60618;40.084;32.908;2023-01-16T08:18:41;89560.28;;;5.07;52.13
72585;BME280;60618;40.084;32.908;2023-01-16T08:21:08;89560.44;;;5.03;50.85
72585;BME280;60618;40.084;32.908;2023-01-16T08:23:35;89562.66;;;5.14;51.75
72585;BME280;60618;40.084;32.908;2023-01-16T08:26:02;89561.91;;;5.04;53.20
72585;BME280;60618;40.084;32.908;2023-01-16T08:28:29;89561.06;;;5.17;52.97
72585;BME280;60618;40.084;32.908;2023-01-16T08:30:56;89555.56;;;5.02;52.71
72585;BME280;60618;40.084;32.908;2023-01-16T08:33:29;89552.75;;;4.87;52.85
72585;BME280;60618;40.084;32.908;2023-01-16T08:35:56;89547.38;;;5.00;52.63
72585;BME280;60618;40.084;32.908;2023-01-16T08:38:23;89548.41;;;5.11;52.78
72585;BME280;60618;40.084;32.908;2023-01-16T08:40:50;89546.69;;;5.27;52.10
72585;BME280;60618;40.084;32.908;2023-01-16T08:43:18;89542.34;;;5.51;51.66
72585;BME280;60618;40.084;32.908;2023-01-16T08:45:45;89537.53;;;5.59;51.17
72585;BME280;60618;40.084;32.908;2023-01-16T08:48:15;89537.06;;;5.51;51.28
72585;BME280;60618;40.084;32.908;2023-01-16T08:50:47;89539.97;;;5.26;51.84
72585;BME280;60618;40.084;32.908;2023-01-16T08:53:14;89538.50;;;5.34;52.74
72585;BME280;60618;40.084;32.908;2023-01-16T08:55:41;89530.66;;;5.12;52.60
72585;BME280;60618;40.084;32.908;2023-01-16T08:58:08;89526.78;;;4.76;52.94
72585;BME280;60618;40.084;32.908;2023-01-16T09:00:35;89528.06;;;4.72;53.41
72585;BME280;60618;40.084;32.908;2023-01-16T09:03:02;89521.19;;;4.74;54.27
72585;BME280;60618;40.084;32.908;2023-01-16T09:05:29;89512.94;;;4.63;54.15
72585;BME280;60618;40.084;32.908;2023-01-16T09:07:56;89520.06;;;4.94;54.21
72585;BME280;60618;40.084;32.908;2023-01-16T09:10:23;89512.81;;;5.16;53.15
72585;BME280;60618;40.084;32.908;2023-01-16T09:12:50;89518.69;;;5.29;53.15
72585;BME280;60618;40.084;32.908;2023-01-16T09:15:17;89511.66;;;5.26;52.13
72585;BME280;60618;40.084;32.908;2023-01-16T09:17:44;89509.72;;;5.27;53.76
72585;BME280;60618;40.084;32.908;2023-01-16T09:20:11;89509.00;;;5.26;52.74
72585;BME280;60618;40.084;32.908;2023-01-16T09:22:38;89509.31;;;5.37;53.05
72585;BME280;60618;40.084;32.908;2023-01-16T09:25:05;89504.34;;;5.58;52.28
72585;BME280;60618;40.084;32.908;2023-01-16T09:27:32;89495.84;;;5.72;51.97
72585;BME280;60618;40.084;32.908;2023-01-16T09:29:59;89496.13;;;5.83;51.73
72585;BME280;60618;40.084;32.908;2023-01-16T09:32:27;89483.91;;;6.22;50.33
72585;BME280;60618;40.084;32.908;2023-01-16T09:34:54;89482.50;;;6.54;50.04
72585;BME280;60618;40.084;32.908;2023-01-16T09:37:21;89477.69;;;6.86;49.75
72585;BME280;60618;40.084;32.908;2023-01-16T09:39:48;89476.34;;;7.15;48.69
72585;BME280;60618;40.084;32.908;2023-01-16T09:45:08;89472.06;;;6.93;48.81
72585;BME280;60618;40.084;32.908;2023-01-16T09:47:40;89468.03;;;7.31;47.82
72585;BME280;60618;40.084;32.908;2023-01-16T09:52:58;89456.31;;;7.61;46.66
72585;BME280;60618;40.084;32.908;2023-01-16T09:55:50;89446.94;;;7.90;47.29
72585;BME280;60618;40.084;32.908;2023-01-16T09:58:20;89442.44;;;7.66;47.00
72585;BME280;60618;40.084;32.908;2023-01-16T10:00:48;89438.22;;;7.60;46.41
72585;BME280;60618;40.084;32.908;2023-01-16T10:03:15;89442.09;;;7.74;46.78
72585;BME280;60618;40.084;32.908;2023-01-16T10:28:55;89399.34;;;9.10;44.63
72585;BME280;60618;40.084;32.908;2023-01-16T10:36:24;89386.31;;;9.12;44.19
72585;BME280;60618;40.084;32.908;2023-01-16T10:38:57;89391.50;;;9.01;43.63
72585;BME280;60618;40.084;32.908;2023-01-16T10:43:55;89382.88;;;9.26;44.29
72585;BME280;60618;40.084;32.908;2023-01-16T10:46:22;89379.81;;;9.54;43.32
72585;BME280;60618;40.084;32.908;2023-01-16T10:48:49;89376.41;;;9.33;43.29
72585;BME280;60618;40.084;32.908;2023-01-16T10:51:16;89376.34;;;9.07;44.04
72585;BME280;60618;40.084;32.908;2023-01-16T10:53:44;89371.69;;;8.81;44.33
72585;BME280;60618;40.084;32.908;2023-01-16T10:56:11;89367.84;;;8.82;44.10
72585;BME280;60618;40.084;32.908;2023-01-16T10:58:38;89363.13;;;8.72;44.31
72585;BME280;60618;40.084;32.908;2023-01-16T11:01:11;89354.97;;;8.61;45.01
72585;BME280;60618;40.084;32.908;2023-01-16T11:03:50;89359.09;;;8.62;45.66
72585;BME280;60618;40.084;32.908;2023-01-16T11:06:23;89352.84;;;9.00;45.27
72585;BME280;60618;40.084;32.908;2023-01-16T11:09:00;89358.00;;;8.89;45.80
72585;BME280;60618;40.084;32.908;2023-01-16T11:11:29;89350.72;;;9.04;44.77
72585;BME280;60618;40.084;32.908;2023-01-16T11:13:57;89346.59;;;9.23;45.35
72585;BME280;60618;40.084;32.908;2023-01-16T11:16:27;89352.16;;;9.05;45.73
72585;BME280;60618;40.084;32.908;2023-01-16T11:18:54;89345.28;;;8.93;45.16
72585;BME280;60618;40.084;32.908;2023-01-16T11:21:29;89344.72;;;8.89;45.44
72585;BME280;60618;40.084;32.908;2023-01-16T11:24:18;89340.28;;;8.80;46.83
72585;BME280;60618;40.084;32.908;2023-01-16T11:26:50;89347.50;;;8.79;47.02
72585;BME280;60618;40.084;32.908;2023-01-16T11:29:19;89344.47;;;8.87;47.08
72585;BME280;60618;40.084;32.908;2023-01-16T11:31:58;89352.13;;;9.20;46.08
72585;BME280;60618;40.084;32.908;2023-01-16T11:34:27;89339.78;;;8.61;46.29
72585;BME280;60618;40.084;32.908;2023-01-16T11:37:02;89339.97;;;8.37;47.95
72585;BME280;60618;40.084;32.908;2023-01-16T11:39:31;89332.03;;;8.58;47.42
72585;BME280;60618;40.084;32.908;2023-01-16T11:42:03;89332.03;;;8.78;47.29
72585;BME280;60618;40.084;32.908;2023-01-16T11:44:33;89333.53;;;8.99;47.35
72585;BME280;60618;40.084;32.908;2023-01-16T11:47:00;89341.06;;;8.66;48.11
72585;BME280;60618;40.084;32.908;2023-01-16T11:49:34;89335.63;;;8.55;47.94
72585;BME280;60618;40.084;32.908;2023-01-16T11:52:02;89332.38;;;8.65;48.35
72585;BME280;60618;40.084;32.908;2023-01-16T11:54:34;89332.13;;;8.84;47.79
72585;BME280;60618;40.084;32.908;2023-01-16T11:57:22;89337.03;;;8.91;47.56
72585;BME280;60618;40.084;32.908;2023-01-16T12:03:00;89322.28;;;8.69;49.26
72585;BME280;60618;40.084;32.908;2023-01-16T12:11:19;89332.63;;;8.47;49.90
72585;BME280;60618;40.084;32.908;2023-01-16T12:13:49;89329.72;;;8.86;49.15
72585;BME280;60618;40.084;32.908;2023-01-16T12:39:54;89325.06;;;8.80;49.42
72585;BME280;60618;40.084;32.908;2023-01-16T12:45:16;89336.25;;;8.49;50.27
72585;BME280;60618;40.084;32.908;2023-01-16T12:48:21;89331.63;;;8.30;50.97
72585;BME280;60618;40.084;32.908;2023-01-16T12:57:26;89329.38;;;8.78;51.07
72585;BME280;60618;40.084;32.908;2023-01-16T13:00:02;89333.03;;;8.80;50.84
72585;BME280;60618;40.084;32.908;2023-01-16T13:05:40;89335.97;;;8.82;50.68
72585;BME280;60618;40.084;32.908;2023-01-16T13:11:07;89337.56;;;9.15;50.04
72585;BME280;60618;40.084;32.908;2023-01-16T13:13:45;89335.44;;;9.19;50.25
72585;BME280;60618;40.084;32.908;2023-01-16T13:16:22;89331.78;;;8.96;50.19
72585;BME280;60618;40.084;32.908;2023-01-16T13:21:27;89332.25;;;8.39;51.49
72585;BME280;60618;40.084;32.908;2023-01-16T13:24:21;89334.66;;;8.22;51.68
72585;BME280;60618;40.084;32.908;2023-01-16T13:26:55;89333.72;;;8.25;51.26
72585;BME280;60618;40.084;32.908;2023-01-16T13:29:40;89334.84;;;8.19;52.10
72585;BME280;60618;40.084;32.908;2023-01-16T13:32:33;89329.44;;;8.13;52.15
72585;BME280;60618;40.084;32.908;2023-01-16T13:35:33;89328.34;;;8.05;52.36
72585;BME280;60618;40.084;32.908;2023-01-16T13:46:20;89337.06;;;7.76;52.83
72585;BME280;60618;40.084;32.908;2023-01-16T13:48:52;89336.97;;;7.71;52.68
72585;BME280;60618;40.084;32.908;2023-01-16T13:51:21;89335.78;;;7.72;53.16
72585;BME280;60618;40.084;32.908;2023-01-16T13:53:51;89335.50;;;7.69;52.73
72585;BME280;60618;40.084;32.908;2023-01-16T13:56:23;89338.50;;;7.62;53.13
72585;BME280;60618;40.084;32.908;2023-01-16T13:59:07;89339.25;;;7.63;53.25
72585;BME280;60618;40.084;32.908;2023-01-16T14:06:51;89345.28;;;7.63;52.71
72585;BME280;60618;40.084;32.908;2023-01-16T14:09:22;89345.00;;;7.61;52.65
72585;BME280;60618;40.084;32.908;2023-01-16T14:12:19;89345.47;;;7.60;52.82
72585;BME280;60618;40.084;32.908;2023-01-16T14:14:49;89352.94;;;7.61;52.60
72585;BME280;60618;40.084;32.908;2023-01-16T14:17:19;89354.72;;;7.64;52.56
72585;BME280;60618;40.084;32.908;2023-01-16T14:19:54;89347.66;;;7.61;52.75
72585;BME280;60618;40.084;32.908;2023-01-16T14:22:35;89343.09;;;7.62;52.44
72585;BME280;60618;40.084;32.908;2023-01-16T14:25:20;89354.88;;;7.61;52.60
72585;BME280;60618;40.084;32.908;2023-01-16T14:27:50;89354.03;;;7.55;52.96
72585;BME280;60618;40.084;32.908;2023-01-16T14:30:32;89349.84;;;7.48;52.92
72585;BME280;60618;40.084;32.908;2023-01-16T14:33:03;89352.41;;;7.57;52.28
72585;BME280;60618;40.084;32.908;2023-01-16T14:35:41;89348.22;;;7.65;52.00
72585;BME280;60618;40.084;32.908;2023-01-16T14:38:18;89351.38;;;7.55;52.41
72585;BME280;60618;40.084;32.908;2023-01-16T14:40:58;89351.22;;;7.58;52.03
72585;BME280;60618;40.084;32.908;2023-01-16T14:43:30;89354.41;;;7.48;53.02
72585;BME280;60618;40.084;32.908;2023-01-16T14:48:43;89349.50;;;7.55;52.52
72585;BME280;60618;40.084;32.908;2023-01-16T14:53:37;89362.06;;;7.46;52.41
72585;BME280;60618;40.084;32.908;2023-01-16T14:56:08;89366.44;;;7.34;53.01
72585;BME280;60618;40.084;32.908;2023-01-16T14:58:47;89366.72;;;7.36;52.90
72585;BME280;60618;40.084;32.908;2023-01-16T15:01:33;89369.38;;;7.36;52.47
72585;BME280;60618;40.084;32.908;2023-01-16T15:04:03;89367.34;;;7.31;52.71
72585;BME280;60618;40.084;32.908;2023-01-16T15:06:37;89379.72;;;6.86;54.31
72585;BME280;60618;40.084;32.908;2023-01-16T15:09:05;89374.50;;;6.77;54.38
72585;BME280;60618;40.084;32.908;2023-01-16T15:11:43;89383.94;;;6.69;54.17
72585;BME280;60618;40.084;32.908;2023-01-16T15:14:15;89384.28;;;6.62;54.78
72585;BME280;60618;40.084;32.908;2023-01-16T15:16:42;89385.41;;;6.70;53.99
72585;BME280;60618;40.084;32.908;2023-01-16T15:19:20;89395.44;;;6.66;54.54
72585;BME280;60618;40.084;32.908;2023-01-16T15:21:48;89385.41;;;6.70;53.93
72585;BME280;60618;40.084;32.908;2023-01-16T15:24:20;89391.72;;;6.72;53.33
72585;BME280;60618;40.084;32.908;2023-01-16T15:26:52;89394.41;;;6.63;54.05
72585;BME280;60618;40.084;32.908;2023-01-16T15:29:46;89397.22;;;6.60;54.21
72585;BME280;60618;40.084;32.908;2023-01-16T15:32:15;89397.41;;;6.56;53.92
72585;BME280;60618;40.084;32.908;2023-01-16T15:34:43;89399.28;;;6.55;54.11
72585;BME280;60618;40.084;32.908;2023-01-16T15:37:22;89404.69;;;6.28;55.77
72585;BME280;60618;40.084;32.908;2023-01-16T15:39:49;89399.81;;;6.36;54.98
72585;BME280;60618;40.084;32.908;2023-01-16T15:42:22;89408.03;;;6.38;54.28